Time;durP1;ratioP1;P1;durP2;ratioP2;P2;SDS_P1;SDS_P2;PMS_P1;PMS_P2;Temp;Humidity;BMP_temperature;BMP_pressure;BME280_temperature;BME280_humidity;BME280_pressure;Samples;Min_cycle;Max_cycle;Signal;HPM_P1;HPM_P2
2021/10/02 00:41:32;;;;;;;4.43;4.03;;;15.00;99.90;;;;;;5060780;28;20062;-40
2021/10/02 00:46:42;;;;;;;5.75;4.50;;;15.00;99.90;;;;;;5063496;28;20042;-41
2021/10/02 00:49:09;;;;;;;5.25;4.68;;;15.00;99.90;;;;;;5052866;28;20021;-40
2021/10/02 00:51:38;;;;;;;4.93;3.90;;;15.00;99.90;;;;;;5059772;28;20028;-37
2021/10/02 00:54:03;;;;;;;6.78;4.53;;;15.00;99.90;;;;;;5054216;28;20024;-41
2021/10/02 00:56:29;;;;;;;4.10;3.72;;;15.00;99.90;;;;;;5058095;28;20028;-41
2021/10/02 00:58:55;;;;;;;6.03;4.82;;;15.00;99.90;;;;;;5056848;28;20017;-41
2021/10/02 01:01:27;;;;;;;5.88;4.80;;;15.00;99.90;;;;;;5055248;28;20099;-40
2021/10/02 01:04:07;;;;;;;7.82;5.97;;;15.00;99.90;;;;;;5059069;28;20021;-41
2021/10/02 01:06:48;;;;;;;6.53;5.45;;;15.00;99.90;;;;;;5054846;28;20657;-41
2021/10/02 01:09:40;;;;;;;7.28;6.57;;;15.00;99.90;;;;;;5056798;28;20372;-42
2021/10/02 01:12:41;;;;;;;7.75;7.05;;;15.00;99.90;;;;;;5044654;28;20040;-40
2021/10/02 01:15:10;;;;;;;9.20;7.00;;;15.00;99.90;;;;;;5051509;28;20040;-39
2021/10/02 01:18:20;;;;;;;9.05;7.18;;;15.00;99.90;;;;;;5060931;28;20021;-41
2021/10/02 01:20:57;;;;;;;9.57;6.55;;;15.00;99.90;;;;;;4998745;28;20022;-40
2021/10/02 01:23:49;;;;;;;7.10;6.28;;;15.00;99.90;;;;;;4996382;28;20125;-38
2021/10/02 01:26:55;;;;;;;8.23;7.00;;;15.00;99.90;;;;;;5038717;28;20200;-40
2021/10/02 01:29:22;;;;;;;9.70;6.35;;;15.00;99.90;;;;;;4979596;28;20030;-38
2021/10/02 01:32:14;;;;;;;9.80;6.85;;;15.00;99.90;;;;;;5038609;28;20033;-40
2021/10/02 01:35:09;;;;;;;8.45;6.13;;;14.90;99.90;;;;;;5061018;28;20020;-39
2021/10/02 01:48:44;;;;;;;7.70;6.95;;;14.90;99.90;;;;;;5059397;28;20075;-41
2021/10/02 01:51:11;;;;;;;8.30;7.50;;;14.90;99.90;;;;;;5069822;28;20144;-36
2021/10/02 01:53:38;;;;;;;8.07;7.28;;;14.90;99.90;;;;;;5061270;28;20389;-39
2021/10/02 01:56:05;;;;;;;8.15;7.13;;;14.90;99.90;;;;;;5066686;28;20052;-40
2021/10/02 01:58:32;;;;;;;7.38;6.00;;;14.90;99.90;;;;;;5063284;28;20009;-39
2021/10/02 02:00:59;;;;;;;8.10;7.28;;;15.00;99.90;;;;;;5065330;28;20112;-41
2021/10/02 02:03:26;;;;;;;9.07;7.20;;;15.00;99.90;;;;;;5064828;28;20103;-43
2021/10/02 02:05:54;;;;;;;8.43;7.50;;;15.00;99.90;;;;;;5062588;28;20475;-41
2021/10/02 02:08:24;;;;;;;7.65;6.82;;;15.00;99.90;;;;;;5067057;28;20028;-40
2021/10/02 02:10:52;;;;;;;9.48;7.20;;;15.00;99.90;;;;;;5060940;28;20028;-41
2021/10/02 02:13:19;;;;;;;7.32;6.45;;;15.00;99.90;;;;;;5068341;28;20033;-40
2021/10/02 02:15:46;;;;;;;7.60;6.82;;;15.00;99.90;;;;;;5058850;28;20029;-41
2021/10/02 02:18:16;;;;;;;8.40;7.43;;;15.00;99.90;;;;;;5069161;28;20020;-38
2021/10/02 02:20:47;;;;;;;7.38;6.00;;;15.00;99.90;;;;;;5060826;28;20054;-36
2021/10/02 02:23:13;;;;;;;7.55;6.75;;;15.00;99.90;;;;;;5068848;28;20108;-38
2021/10/02 02:25:43;;;;;;;6.82;6.05;;;15.00;99.90;;;;;;5058443;28;20111;-40
2021/10/02 02:28:09;;;;;;;10.20;7.28;;;15.00;99.90;;;;;;5070469;28;20016;-40
2021/10/02 02:30:36;;;;;;;9.07;6.95;;;15.00;99.90;;;;;;5056329;28;20029;-40
2021/10/02 02:33:03;;;;;;;11.18;7.50;;;15.00;99.90;;;;;;5069826;28;20028;-41
2021/10/02 02:35:28;;;;;;;7.65;6.00;;;15.00;99.90;;;;;;5055842;28;20510;-40
2021/10/02 02:37:55;;;;;;;10.48;7.72;;;15.00;99.90;;;;;;5069970;28;20032;-40
2021/10/02 02:40:21;;;;;;;7.93;6.43;;;15.00;99.90;;;;;;5058868;28;20029;-40
2021/10/02 02:42:48;;;;;;;8.13;6.95;;;15.00;99.90;;;;;;5067429;28;20036;-41
2021/10/02 02:45:15;;;;;;;9.25;6.72;;;15.00;99.90;;;;;;5061322;28;20485;-41
2021/10/02 02:48:01;;;;;;;9.98;7.28;;;15.00;99.90;;;;;;5065867;28;20472;-40
2021/10/02 02:50:46;;;;;;;7.45;6.32;;;14.90;99.90;;;;;;5060696;28;20024;-40
2021/10/02 02:53:27;;;;;;;10.32;7.75;;;14.90;99.90;;;;;;5068472;28;20024;-40
2021/10/02 02:56:02;;;;;;;9.10;7.43;;;14.90;99.90;;;;;;5058585;28;20529;-40
2021/10/02 02:58:29;;;;;;;10.50;7.90;;;14.90;99.90;;;;;;5068419;28;20021;-40
2021/10/02 03:01:00;;;;;;;9.18;7.65;;;14.90;99.90;;;;;;5060726;28;20450;-39
2021/10/02 03:03:28;;;;;;;8.02;7.22;;;14.90;99.90;;;;;;5067027;28;20024;-38
2021/10/02 03:05:59;;;;;;;10.00;7.13;;;14.90;99.90;;;;;;5061713;28;20032;-40
2021/10/02 03:08:32;;;;;;;9.05;8.10;;;14.90;99.90;;;;;;5064947;28;20033;-41
2021/10/02 03:11:01;;;;;;;10.07;8.02;;;14.90;99.90;;;;;;5062613;28;20465;-42
2021/10/02 03:13:29;;;;;;;10.32;9.25;;;14.90;99.90;;;;;;5063816;28;20051;-38
2021/10/02 03:15:55;;;;;;;8.27;7.47;;;14.90;99.90;;;;;;5064636;28;20111;-39
2021/10/02 03:18:21;;;;;;;8.23;7.38;;;14.90;99.90;;;;;;5061653;28;20031;-41
2021/10/02 03:20:53;;;;;;;7.63;6.90;;;14.90;99.90;;;;;;5062704;28;20100;-41
2021/10/02 03:23:24;;;;;;;11.60;7.47;;;14.90;99.90;;;;;;5058159;28;20365;-41
2021/10/02 03:25:50;;;;;;;8.82;7.47;;;15.00;99.90;;;;;;5049959;28;20029;-41
2021/10/02 03:28:16;;;;;;;7.55;6.85;;;14.90;99.90;;;;;;5060974;28;20021;-41
2021/10/02 03:30:42;;;;;;;10.73;7.80;;;15.00;99.90;;;;;;5050781;28;20029;-39
2021/10/02 03:33:34;;;;;;;7.90;6.78;;;15.00;99.90;;;;;;5059903;28;20466;-40
2021/10/02 03:36:00;;;;;;;10.23;9.05;;;15.00;99.90;;;;;;5046652;28;20041;-39
2021/10/02 03:38:26;;;;;;;10.05;8.95;;;14.90;99.90;;;;;;5060451;28;20151;-39
2021/10/02 03:41:02;;;;;;;12.20;9.50;;;14.90;99.90;;;;;;5050305;28;20464;-41
2021/10/02 03:43:33;;;;;;;12.18;9.02;;;14.90;99.90;;;;;;5059471;28;20048;-39
2021/10/02 03:45:59;;;;;;;11.40;9.35;;;14.90;99.90;;;;;;5050456;28;20112;-41
2021/10/02 03:48:24;;;;;;;14.18;9.88;;;14.90;99.90;;;;;;5060058;28;20111;-41
2021/10/02 03:50:50;;;;;;;8.93;8.07;;;14.90;99.90;;;;;;5049966;28;20029;-41
2021/10/02 03:53:16;;;;;;;9.02;8.13;;;14.90;99.90;;;;;;5065153;28;20021;-41
2021/10/02 03:55:44;;;;;;;7.97;7.18;;;14.90;99.90;;;;;;5051952;28;20361;-40
2021/10/02 03:58:10;;;;;;;8.27;7.25;;;14.90;99.90;;;;;;5064374;28;20025;-40
2021/10/02 04:00:35;;;;;;;12.23;9.65;;;14.80;99.90;;;;;;5052608;28;20036;-40
2021/10/02 04:03:01;;;;;;;9.20;7.97;;;14.90;99.90;;;;;;5062094;28;20021;-39
2021/10/02 04:05:26;;;;;;;9.15;7.72;;;14.90;99.90;;;;;;5055005;28;20109;-40
2021/10/02 04:07:52;;;;;;;11.25;10.00;;;14.90;99.90;;;;;;5058731;28;20028;-40
2021/10/02 04:10:17;;;;;;;13.40;10.98;;;14.80;99.90;;;;;;5057701;28;20086;-39
2021/10/02 04:12:43;;;;;;;11.75;9.60;;;14.80;99.90;;;;;;5056467;28;20021;-38
2021/10/02 04:15:12;;;;;;;10.95;9.80;;;14.80;99.90;;;;;;5060415;28;20041;-41
2021/10/02 04:17:38;;;;;;;11.32;9.85;;;14.80;99.90;;;;;;5054566;28;20037;-41
2021/10/02 04:20:04;;;;;;;9.25;7.95;;;14.80;99.90;;;;;;5064703;28;20028;-41
2021/10/02 04:22:30;;;;;;;8.10;7.07;;;14.80;99.90;;;;;;5068849;28;20025;-42
2021/10/02 04:24:56;;;;;;;12.98;10.02;;;14.80;99.90;;;;;;5061285;28;20095;-37
2021/10/02 04:27:22;;;;;;;9.23;8.20;;;14.80;99.90;;;;;;5070447;28;20036;-42
2021/10/02 04:29:47;;;;;;;10.18;7.63;;;14.80;99.90;;;;;;5060665;28;20427;-41
2021/10/02 04:32:13;;;;;;;14.27;9.40;;;14.90;99.90;;;;;;5072587;28;20464;-41
2021/10/02 04:34:39;;;;;;;13.20;9.32;;;14.80;99.90;;;;;;5058977;28;20028;-42
2021/10/02 04:37:04;;;;;;;11.85;9.88;;;14.80;99.90;;;;;;5072183;28;20499;-40
2021/10/02 04:39:33;;;;;;;10.95;9.50;;;14.90;99.90;;;;;;5059656;28;20094;-40
2021/10/02 04:41:59;;;;;;;13.45;10.10;;;14.90;99.90;;;;;;5071624;28;20016;-41
2021/10/02 04:44:24;;;;;;;13.90;10.57;;;14.80;99.90;;;;;;5061629;28;20028;-40
2021/10/02 04:46:50;;;;;;;9.65;8.65;;;14.80;99.90;;;;;;5068759;28;20036;-40
2021/10/02 04:49:16;;;;;;;10.02;9.02;;;14.90;99.90;;;;;;5064300;28;20017;-39
2021/10/02 04:51:42;;;;;;;12.27;9.80;;;14.80;99.90;;;;;;5066254;28;20395;-41
2021/10/02 04:54:09;;;;;;;11.95;9.95;;;14.90;99.90;;;;;;5065675;28;20027;-41
2021/10/02 04:56:34;;;;;;;8.80;7.90;;;14.80;99.90;;;;;;5063541;28;20040;-40
2021/10/02 04:59:00;;;;;;;11.20;9.48;;;14.80;99.90;;;;;;5068949;28;20024;-40
2021/10/02 05:01:25;;;;;;;12.02;10.73;;;14.80;99.90;;;;;;5060500;28;20111;-38
2021/10/02 05:03:51;;;;;;;16.08;10.90;;;14.80;99.90;;;;;;5070229;28;20025;-39
2021/10/02 05:06:17;;;;;;;11.52;10.32;;;14.80;99.90;;;;;;5059450;28;20016;-41
2021/10/02 05:08:43;;;;;;;12.50;10.13;;;14.80;99.90;;;;;;5070630;28;20028;-40
2021/10/02 05:11:09;;;;;;;9.82;8.88;;;14.80;99.90;;;;;;5058004;28;20102;-38
2021/10/02 05:13:34;;;;;;;13.63;10.98;;;14.80;99.90;;;;;;5070387;28;20045;-42
2021/10/02 05:16:01;;;;;;;14.70;12.73;;;14.70;99.90;;;;;;5058268;28;20108;-41
2021/10/02 05:18:27;;;;;;;13.82;12.23;;;14.70;99.90;;;;;;5070600;28;20044;-38
2021/10/02 05:20:53;;;;;;;15.07;12.38;;;14.60;99.90;;;;;;5066890;28;20048;-42
2021/10/02 05:23:18;;;;;;;12.93;11.32;;;14.50;99.90;;;;;;5070169;28;20028;-41
2021/10/02 05:25:44;;;;;;;11.45;10.27;;;14.50;99.90;;;;;;5065451;28;20460;-41
2021/10/02 05:28:10;;;;;;;12.32;10.98;;;14.40;99.90;;;;;;5053542;28;20025;-38
2021/10/02 05:30:38;;;;;;;14.90;13.30;;;14.40;99.90;;;;;;5056868;28;20024;-41
2021/10/02 05:33:04;;;;;;;16.13;13.40;;;14.30;99.90;;;;;;5056684;28;20013;-42
2021/10/02 05:35:31;;;;;;;17.77;13.75;;;14.30;99.90;;;;;;5054326;28;20426;-42
2021/10/02 05:37:56;;;;;;;17.20;13.95;;;14.30;99.90;;;;;;5059068;28;20100;-39
2021/10/02 05:40:22;;;;;;;14.50;11.88;;;14.20;99.90;;;;;;5052124;28;20429;-40
2021/10/02 05:42:50;;;;;;;12.57;10.48;;;14.20;99.90;;;;;;5061448;28;20637;-41
2021/10/02 05:45:18;;;;;;;13.40;11.30;;;14.20;99.90;;;;;;5050188;28;20472;-41
2021/10/02 05:47:47;;;;;;;13.00;11.02;;;14.10;99.90;;;;;;5061182;28;20028;-37
2021/10/02 05:50:12;;;;;;;11.95;10.73;;;14.10;99.90;;;;;;5052175;28;20147;-41
2021/10/02 05:52:38;;;;;;;11.90;10.43;;;14.00;99.90;;;;;;5061286;28;20484;-39
2021/10/02 05:55:04;;;;;;;11.43;10.15;;;14.00;99.90;;;;;;5050298;28;20453;-39
2021/10/02 05:57:30;;;;;;;9.73;8.75;;;14.00;99.90;;;;;;5062561;28;20139;-41
2021/10/02 05:59:55;;;;;;;10.60;9.07;;;14.10;99.90;;;;;;5050189;28;20528;-39
2021/10/02 06:02:27;;;;;;;9.73;8.45;;;14.00;99.90;;;;;;5061618;28;20028;-39
2021/10/02 06:04:56;;;;;;;9.40;8.38;;;13.90;99.90;;;;;;5050774;28;20017;-41
2021/10/02 06:07:21;;;;;;;9.18;8.20;;;13.90;99.90;;;;;;5060348;28;20036;-38
2021/10/02 06:10:08;;;;;;;10.55;6.68;;;13.80;99.90;;;;;;5051267;28;20385;-41
2021/10/02 06:12:42;;;;;;;10.85;8.18;;;13.80;99.90;;;;;;5056635;28;20029;-41
2021/10/02 06:15:07;;;;;;;11.80;8.80;;;13.70;99.90;;;;;;5048402;28;20131;-40
2021/10/02 06:17:36;;;;;;;9.27;8.05;;;13.70;99.90;;;;;;5058381;28;20075;-41
2021/10/02 06:20:02;;;;;;;9.70;8.30;;;13.70;99.90;;;;;;5052062;28;20342;-40
2021/10/02 06:22:28;;;;;;;8.98;8.05;;;13.70;99.90;;;;;;5065739;28;20045;-41
2021/10/02 06:24:53;;;;;;;10.57;8.27;;;13.70;99.90;;;;;;5052252;28;20392;-39
2021/10/02 06:27:19;;;;;;;9.75;8.45;;;13.70;99.90;;;;;;5052990;28;20521;-37
2021/10/02 06:29:44;;;;;;;10.73;8.57;;;13.70;99.90;;;;;;5056330;28;20078;-36
2021/10/02 06:32:10;;;;;;;9.85;7.70;;;13.70;99.90;;;;;;5050981;28;20376;-41
2021/10/02 06:34:35;;;;;;;9.77;8.38;;;13.70;99.90;;;;;;5058328;28;20044;-44
2021/10/02 06:37:01;;;;;;;9.70;7.30;;;13.80;99.90;;;;;;5048849;28;20059;-42
2021/10/02 06:39:26;;;;;;;10.00;8.85;;;13.90;99.90;;;;;;5064047;28;20452;-43
2021/10/02 06:41:55;;;;;;;9.20;7.88;;;13.90;99.90;;;;;;5069628;28;20052;-41
2021/10/02 06:44:23;;;;;;;10.20;8.68;;;13.90;99.90;;;;;;5067420;28;20020;-39
2021/10/02 06:46:48;;;;;;;9.55;8.20;;;13.90;99.90;;;;;;5070341;28;20035;-43
2021/10/02 06:49:14;;;;;;;13.57;9.05;;;13.90;99.90;;;;;;5056795;28;20016;-42
2021/10/02 06:51:39;;;;;;;10.18;8.77;;;13.90;99.90;;;;;;5069234;28;20199;-43
2021/10/02 06:54:05;;;;;;;10.80;8.93;;;13.90;99.90;;;;;;5057710;28;20040;-41
2021/10/02 06:56:30;;;;;;;10.65;8.68;;;14.00;99.90;;;;;;5069013;28;20396;-41
2021/10/02 06:58:56;;;;;;;10.45;8.68;;;14.10;99.90;;;;;;5060001;28;20029;-43
2021/10/02 07:01:24;;;;;;;10.40;8.35;;;14.10;99.90;;;;;;5070088;28;20016;-41
2021/10/02 07:03:50;;;;;;;11.95;9.05;;;14.20;99.90;;;;;;5077968;28;20116;-40
2021/10/02 07:06:16;;;;;;;13.38;9.30;;;14.30;99.90;;;;;;5076162;28;20017;-41
2021/10/02 07:08:41;;;;;;;13.13;9.65;;;14.40;99.90;;;;;;5076147;28;20028;-40
2021/10/02 07:11:07;;;;;;;12.65;10.07;;;14.50;99.90;;;;;;5056609;28;20163;-39
2021/10/02 07:13:37;;;;;;;14.30;10.50;;;14.60;99.90;;;;;;5050721;28;20771;-40
2021/10/02 07:16:02;;;;;;;11.73;9.48;;;14.60;99.90;;;;;;5057971;28;20131;-40
2021/10/02 07:18:28;;;;;;;11.50;8.40;;;14.70;99.90;;;;;;5051948;28;20107;-41
2021/10/02 07:20:54;;;;;;;12.10;9.35;;;14.80;99.90;;;;;;5067988;28;20050;-39
2021/10/02 07:23:20;;;;;;;13.90;10.88;;;14.80;99.90;;;;;;5068001;28;20112;-39
2021/10/02 07:25:47;;;;;;;12.82;9.80;;;14.90;99.90;;;;;;5070275;28;20015;-38
2021/10/02 07:28:13;;;;;;;14.35;9.70;;;14.90;99.90;;;;;;5073583;28;20054;-40
2021/10/02 07:30:44;;;;;;;9.88;8.88;;;15.00;99.90;;;;;;5065575;28;20025;-40
2021/10/02 07:33:10;;;;;;;10.77;9.67;;;15.00;99.90;;;;;;5067308;28;20024;-41
2021/10/02 07:35:47;;;;;;;12.73;10.25;;;15.10;99.90;;;;;;5059633;28;20112;-40
2021/10/02 07:38:13;;;;;;;12.45;9.45;;;15.10;99.90;;;;;;5073523;28;20032;-39
2021/10/02 07:40:40;;;;;;;11.38;9.35;;;15.10;99.90;;;;;;5059511;28;20021;-40
2021/10/02 07:43:13;;;;;;;12.82;10.05;;;15.20;99.90;;;;;;5092581;28;20028;-40
2021/10/02 07:45:40;;;;;;;10.55;8.95;;;15.10;99.90;;;;;;5073150;28;20021;-40
2021/10/02 07:48:08;;;;;;;11.52;9.60;;;15.10;99.90;;;;;;5053515;28;20057;-40
2021/10/02 07:50:37;;;;;;;11.77;9.60;;;15.10;99.90;;;;;;5061503;28;20482;-39
2021/10/02 07:53:03;;;;;;;14.25;10.48;;;15.10;99.90;;;;;;5054962;28;20036;-41
2021/10/02 07:55:29;;;;;;;10.90;9.80;;;15.10;99.90;;;;;;5058812;28;20012;-40
2021/10/02 07:57:56;;;;;;;10.13;8.98;;;15.20;99.90;;;;;;5058445;28;20021;-41
2021/10/02 08:00:22;;;;;;;11.27;8.95;;;15.30;99.90;;;;;;5056280;28;20024;-41
2021/10/02 08:02:52;;;;;;;11.85;9.68;;;15.40;99.90;;;;;;5060655;28;20021;-40
2021/10/02 08:05:19;;;;;;;9.63;8.30;;;15.40;99.90;;;;;;5054720;28;20017;-38
2021/10/02 08:07:46;;;;;;;11.38;8.70;;;15.50;99.90;;;;;;5067943;28;20368;-41
2021/10/02 08:10:14;;;;;;;10.57;8.52;;;15.40;99.90;;;;;;5070886;28;20472;-38
2021/10/02 08:12:40;;;;;;;10.10;8.80;;;15.40;99.90;;;;;;5060233;28;20104;-41
2021/10/02 08:15:07;;;;;;;12.13;8.35;;;15.30;99.90;;;;;;5070066;28;20072;-40
2021/10/02 08:17:42;;;;;;;10.05;8.85;;;15.30;99.90;;;;;;5060848;28;20112;-39
2021/10/02 08:20:11;;;;;;;8.98;7.57;;;15.30;99.90;;;;;;5071705;28;20029;-41
2021/10/02 08:22:39;;;;;;;9.27;7.32;;;15.30;99.90;;;;;;5062326;28;20107;-38
2021/10/02 08:25:06;;;;;;;11.55;8.73;;;15.40;99.90;;;;;;5052330;28;20074;-41
2021/10/02 08:27:32;;;;;;;12.63;8.40;;;15.40;99.90;;;;;;5066458;28;20032;-41
2021/10/02 08:29:58;;;;;;;9.13;6.60;;;15.50;99.90;;;;;;5069457;28;20036;-39
2021/10/02 08:32:27;;;;;;;8.15;6.80;;;15.60;99.90;;;;;;5067782;28;20024;-41
2021/10/02 08:34:55;;;;;;;9.75;7.35;;;15.60;99.90;;;;;;5070591;28;20017;-40
2021/10/02 08:37:21;;;;;;;9.00;7.70;;;15.70;99.90;;;;;;5058364;28;20037;-39
2021/10/02 08:39:46;;;;;;;11.00;8.25;;;15.60;99.90;;;;;;5067312;28;20020;-41
2021/10/02 08:42:12;;;;;;;9.73;7.97;;;15.70;99.90;;;;;;5069294;28;20111;-39
2021/10/02 08:44:38;;;;;;;9.77;7.93;;;15.60;99.90;;;;;;5071196;28;20024;-39
2021/10/02 08:47:04;;;;;;;9.98;8.95;;;15.60;99.90;;;;;;5066277;28;20029;-40
2021/10/02 08:49:32;;;;;;;12.45;9.15;;;15.60;99.90;;;;;;5063647;28;20107;-41
2021/10/02 08:52:01;;;;;;;10.93;8.32;;;15.60;99.90;;;;;;5068292;28;20028;-38
2021/10/02 08:54:28;;;;;;;10.02;8.30;;;15.60;99.90;;;;;;5053960;28;20024;-41
2021/10/02 08:56:54;;;;;;;9.23;7.65;;;15.70;99.90;;;;;;5052656;28;20055;-41
2021/10/02 08:59:21;;;;;;;6.90;6.20;;;15.70;99.90;;;;;;5064930;28;20132;-41
2021/10/02 09:01:48;;;;;;;8.20;6.65;;;15.80;99.90;;;;;;5067774;28;20029;-40
2021/10/02 09:04:14;;;;;;;7.32;5.68;;;15.90;99.90;;;;;;5068507;28;20384;-43
2021/10/02 09:06:40;;;;;;;9.82;6.38;;;15.90;99.90;;;;;;5070396;28;20090;-38
2021/10/02 09:09:08;;;;;;;8.20;5.30;;;15.90;99.90;;;;;;5071249;28;20017;-39
2021/10/02 09:11:35;;;;;;;7.20;4.97;;;16.00;99.90;;;;;;5067652;28;20021;-40
2021/10/02 09:14:00;;;;;;;5.80;5.10;;;16.00;99.90;;;;;;5070061;28;20086;-40
2021/10/02 09:16:26;;;;;;;7.20;5.40;;;16.10;99.90;;;;;;5070790;28;20068;-44
2021/10/02 09:18:52;;;;;;;8.18;6.38;;;16.10;99.90;;;;;;5058791;28;20384;-45
2021/10/02 09:21:20;;;;;;;9.73;6.00;;;16.20;99.90;;;;;;5062138;28;20465;-42
2021/10/02 09:23:48;;;;;;;9.50;6.60;;;16.20;99.90;;;;;;5060894;28;20426;-42
2021/10/02 09:26:16;;;;;;;7.55;5.60;;;16.20;99.90;;;;;;5070073;28;20052;-45
2021/10/02 09:28:47;;;;;;;8.38;5.63;;;16.20;99.90;;;;;;5062720;28;20036;-46
2021/10/02 09:31:16;;;;;;;8.40;5.53;;;16.20;99.90;;;;;;5066449;28;20100;-43
2021/10/02 09:33:46;;;;;;;7.13;5.70;;;16.20;99.90;;;;;;5066590;28;20506;-46
2021/10/02 09:36:23;;;;;;;4.97;4.10;;;16.20;99.90;;;;;;5066018;28;20052;-46
2021/10/02 09:38:50;;;;;;;9.77;5.70;;;16.20;99.90;;;;;;5068087;28;20689;-44
2021/10/02 09:41:15;;;;;;;6.18;4.10;;;16.30;99.90;;;;;;5070227;28;20052;-45
2021/10/02 09:43:50;;;;;;;5.68;3.75;;;16.40;99.90;;;;;;5068602;28;20047;-46
2021/10/02 09:46:17;;;;;;;7.93;4.55;;;16.50;99.90;;;;;;5066695;28;20490;-45
2021/10/02 09:48:53;;;;;;;6.05;4.15;;;16.60;99.90;;;;;;5068155;28;20009;-45
2021/10/02 09:51:19;;;;;;;6.05;4.47;;;16.80;99.90;;;;;;5066250;28;20052;-46
2021/10/02 09:53:46;;;;;;;5.68;3.67;;;16.80;99.90;;;;;;5069577;28;20502;-46
2021/10/02 09:56:14;;;;;;;6.97;3.88;;;16.90;99.90;;;;;;5069339;28;20056;-46
2021/10/02 09:58:40;;;;;;;4.35;3.17;;;17.10;99.90;;;;;;5068372;28;20069;-45
2021/10/02 10:01:25;;;;;;;5.93;2.97;;;17.10;99.90;;;;;;5059059;28;20021;-47
2021/10/02 10:03:51;;;;;;;7.07;4.05;;;17.10;99.90;;;;;;5068649;28;20015;-46
2021/10/02 10:06:25;;;;;;;6.65;3.85;;;17.10;99.90;;;;;;5059322;28;20052;-46
2021/10/02 10:09:11;;;;;;;4.30;3.00;;;17.10;99.90;;;;;;5068814;28;20380;-47
2021/10/02 10:11:56;;;;;;;5.50;3.17;;;17.20;99.90;;;;;;5058867;28;20021;-45
2021/10/02 10:14:28;;;;;;;3.15;2.33;;;17.30;99.90;;;;;;5067227;28;20064;-45
2021/10/02 10:16:56;;;;;;;4.13;2.37;;;17.30;99.90;;;;;;5059253;28;20518;-42
2021/10/02 10:19:25;;;;;;;5.85;2.88;;;17.40;99.90;;;;;;5068121;28;20344;-46
2021/10/02 10:22:08;;;;;;;4.35;2.40;;;17.50;99.90;;;;;;5069761;28;20060;-47
2021/10/02 10:24:36;;;;;;;4.13;2.45;;;17.50;99.90;;;;;;5067330;28;20457;-42
2021/10/02 10:27:05;;;;;;;4.15;2.72;;;17.50;99.90;;;;;;5059151;28;20793;-46
2021/10/02 10:29:42;;;;;;;3.88;2.60;;;17.60;99.90;;;;;;5067392;28;20012;-45
2021/10/02 10:32:10;;;;;;;6.00;3.05;;;17.70;99.90;;;;;;5067306;28;20357;-46
2021/10/02 10:34:42;;;;;;;6.60;3.50;;;17.80;99.90;;;;;;5068429;28;20066;-45
2021/10/02 10:37:09;;;;;;;5.10;2.95;;;17.90;99.90;;;;;;5068608;28;20029;-43
2021/10/02 10:39:35;;;;;;;5.35;3.10;;;18.00;99.90;;;;;;5069164;28;20025;-44
2021/10/02 10:42:05;;;;;;;4.07;3.10;;;18.00;99.90;;;;;;5055753;28;20131;-44
2021/10/02 10:44:32;;;;;;;5.53;2.60;;;18.00;99.90;;;;;;5069011;28;20372;-44
2021/10/02 10:46:58;;;;;;;3.70;2.00;;;18.00;99.90;;;;;;5056853;28;20025;-42
2021/10/02 10:49:24;;;;;;;4.72;2.10;;;18.00;99.90;;;;;;5069087;28;20027;-40
2021/10/02 10:51:51;;;;;;;4.18;1.90;;;18.00;99.90;;;;;;5059192;28;20056;-43
2021/10/02 10:54:17;;;;;;;4.35;1.90;;;18.00;99.90;;;;;;5068269;28;20450;-43
2021/10/02 10:56:47;;;;;;;3.95;1.95;;;18.00;99.90;;;;;;5060404;28;20527;-44
2021/10/02 10:59:18;;;;;;;3.28;2.15;;;18.00;99.90;;;;;;5066533;28;20036;-43
2021/10/02 11:01:45;;;;;;;2.90;1.90;;;18.10;99.90;;;;;;5066649;28;20028;-43
2021/10/02 11:04:33;;;;;;;3.58;1.92;;;18.20;99.90;;;;;;5067835;28;20380;-41
2021/10/02 11:06:59;;;;;;;3.28;1.63;;;18.30;99.90;;;;;;5065779;28;20029;-43
2021/10/02 11:09:44;;;;;;;2.92;1.52;;;18.40;99.90;;;;;;5068562;28;20620;-42
2021/10/02 11:12:14;;;;;;;2.42;1.45;;;18.50;99.90;;;;;;5069490;28;20460;-41
2021/10/02 11:14:54;;;;;;;1.67;1.40;;;18.50;99.90;;;;;;5056716;28;20079;-43
2021/10/02 11:17:33;;;;;;;2.65;1.48;;;18.50;99.90;;;;;;5060271;28;20087;-43
2021/10/02 11:20:21;;;;;;;1.70;1.15;;;18.50;99.90;;;;;;5056404;28;20021;-43
2021/10/02 11:23:24;;;;;;;2.50;1.10;;;18.40;99.90;;;;;;5061990;28;20025;-43
2021/10/02 11:26:08;;;;;;;;;;;18.30;99.90;;;;;;5053320;28;20133;-44
2021/10/02 11:28:35;;;;;;;1.98;1.15;;;18.20;99.90;;;;;;5065017;28;19913;-46
2021/10/02 11:31:15;;;;;;;1.58;1.10;;;18.10;99.90;;;;;;5053465;28;20374;-42
2021/10/02 11:33:49;;;;;;;3.50;1.15;;;18.10;99.90;;;;;;5065351;28;20032;-42
2021/10/02 11:36:33;;;;;;;2.17;1.40;;;18.20;99.90;;;;;;5064857;28;20025;-44
2021/10/02 11:39:25;;;;;;;1.65;1.20;;;18.20;99.90;;;;;;5071670;28;20025;-45
2021/10/02 11:41:57;;;;;;;2.33;1.73;;;18.20;99.90;;;;;;5072254;28;20016;-43
2021/10/02 11:44:23;;;;;;;;;;;18.30;99.90;;;;;;5064002;28;20453;-41
2021/10/02 11:47:14;;;;;;;2.30;1.30;;;18.30;99.90;;;;;;5052349;28;19919;-46
2021/10/02 11:49:40;;;;;;;1.58;1.20;;;18.40;99.90;;;;;;5064689;28;20033;-41
2021/10/02 11:52:11;;;;;;;2.05;1.15;;;18.40;99.90;;;;;;5071839;28;20028;-43
2021/10/02 11:54:37;;;;;;;1.45;1.10;;;18.50;99.90;;;;;;5066982;28;20416;-44
2021/10/02 11:57:07;;;;;;;1.90;1.20;;;18.60;99.90;;;;;;5052965;28;20108;-45
2021/10/02 11:59:33;;;;;;;2.97;1.15;;;18.70;99.90;;;;;;5064683;28;20393;-43
2021/10/02 12:02:04;;;;;;;1.75;1.20;;;18.80;99.90;;;;;;5053168;28;20392;-38
2021/10/02 12:04:30;;;;;;;2.25;1.10;;;18.90;99.90;;;;;;5055442;28;20025;-43
2021/10/02 12:06:55;;;;;;;2.13;1.15;;;18.90;99.90;;;;;;5072565;28;20024;-44
2021/10/02 12:09:20;;;;;;;1.38;1.20;;;19.00;99.90;;;;;;5061893;28;20460;-44
2021/10/02 12:11:50;;;;;;;3.20;1.30;;;19.10;99.90;;;;;;5069121;28;20033;-45
2021/10/02 12:14:24;;;;;;;1.95;1.27;;;19.20;99.90;;;;;;5069610;28;20037;-44
2021/10/02 12:16:56;;;;;;;2.05;1.10;;;19.30;99.90;;;;;;5054139;28;20049;-43
2021/10/02 12:19:22;;;;;;;1.77;1.00;;;19.30;99.90;;;;;;5057627;28;20013;-45
2021/10/02 12:21:56;;;;;;;1.33;0.90;;;19.30;99.90;;;;;;5065928;28;20078;-45
2021/10/02 12:24:23;;;;;;;2.13;1.33;;;19.30;99.90;;;;;;5057316;28;20021;-41
2021/10/02 12:26:52;;;;;;;1.80;1.02;;;19.20;99.80;;;;;;5057697;28;20029;-46
2021/10/02 12:29:20;;;;;;;2.90;1.20;;;19.20;99.80;;;;;;5054567;28;20025;-42
2021/10/02 12:31:53;;;;;;;2.60;1.58;;;19.20;99.90;;;;;;5060182;28;20029;-44
2021/10/02 12:34:22;;;;;;;2.08;1.20;;;19.20;99.90;;;;;;5057634;28;20056;-43
2021/10/02 12:37:00;;;;;;;3.05;1.20;;;19.10;99.60;;;;;;5062841;28;20832;-45
2021/10/02 12:39:33;;;;;;;1.80;1.40;;;19.00;99.60;;;;;;5069113;28;20016;-45
2021/10/02 12:41:59;;;;;;;2.42;1.10;;;19.00;99.70;;;;;;5062797;28;20033;-44
2021/10/02 12:44:30;;;;;;;1.10;0.90;;;18.90;99.70;;;;;;5070020;28;20016;-44
2021/10/02 12:47:00;;;;;;;2.83;1.25;;;18.90;99.90;;;;;;5061072;28;20101;-45
2021/10/02 12:49:27;;;;;;;1.98;1.50;;;18.90;99.90;;;;;;5069676;28;20021;-44
2021/10/02 12:51:54;;;;;;;2.42;1.42;;;18.80;99.90;;;;;;5060698;28;20463;-45
2021/10/02 12:54:25;;;;;;;2.50;1.60;;;18.80;99.90;;;;;;5070379;28;20030;-44
2021/10/02 12:57:00;;;;;;;1.90;1.20;;;18.70;99.90;;;;;;5062111;28;20025;-46
2021/10/02 12:59:38;;;;;;;1.58;1.15;;;18.70;99.90;;;;;;5051697;28;20059;-46
2021/10/02 13:02:04;;;;;;;1.30;0.93;;;18.70;99.90;;;;;;5063603;28;20033;-44
2021/10/02 13:04:32;;;;;;;1.35;0.90;;;18.70;99.90;;;;;;5050562;28;20024;-46
2021/10/02 13:06:58;;;;;;;1.88;1.00;;;18.70;99.90;;;;;;5058639;28;20027;-44
2021/10/02 13:09:24;;;;;;;1.40;1.00;;;18.70;99.90;;;;;;5070875;28;20017;-44
2021/10/02 13:11:50;;;;;;;1.77;1.08;;;18.70;99.90;;;;;;5058580;28;20037;-45
2021/10/02 13:14:34;;;;;;;1.10;0.90;;;18.60;99.90;;;;;;5071389;28;20041;-46
2021/10/02 13:17:10;;;;;;;1.42;0.88;;;18.60;99.90;;;;;;5058433;28;20393;-46
2021/10/02 13:19:36;;;;;;;1.98;1.00;;;18.60;99.90;;;;;;5070720;28;20021;-45
2021/10/02 13:22:13;;;;;;;1.25;1.08;;;18.70;99.90;;;;;;5058724;28;20477;-45
2021/10/02 13:25:12;;;;;;;1.10;1.00;;;18.70;99.90;;;;;;5070095;28;20039;-45
2021/10/02 13:27:41;;;;;;;1.02;0.73;;;18.70;99.90;;;;;;5063001;28;20025;-44
2021/10/02 13:30:19;;;;;;;1.45;0.82;;;18.70;99.90;;;;;;5050962;28;20021;-45
2021/10/02 13:33:12;;;;;;;1.10;1.00;;;18.60;99.90;;;;;;5063587;28;20032;-43
2021/10/02 13:35:45;;;;;;;0.90;0.80;;;18.50;99.90;;;;;;5050888;28;20021;-46
2021/10/02 13:38:10;;;;;;;2.10;1.00;;;18.50;99.90;;;;;;5061562;28;20033;-47
2021/10/02 13:40:38;;;;;;;1.52;0.90;;;18.50;99.90;;;;;;5050500;28;20029;-45
2021/10/02 13:43:09;;;;;;;1.27;1.05;;;18.50;99.90;;;;;;5063380;28;20067;-44
2021/10/02 13:45:39;;;;;;;1.92;1.05;;;18.50;99.90;;;;;;5049788;28;20021;-41
2021/10/02 13:48:14;;;;;;;0.90;0.88;;;18.60;99.90;;;;;;5063838;28;20073;-44
2021/10/02 13:50:42;;;;;;;1.08;0.98;;;18.60;99.90;;;;;;5050722;28;20123;-46